sensor_id;sensor_type;location;lat;lon;timestamp;P1;durP1;ratioP1;P2;durP2;ratioP2
24813;SDS011;12904;50.088;11.414;2023-09-30T00:00:14;15.05;;;6.90;;
24813;SDS011;12904;50.088;11.414;2023-09-30T00:02:40;16.13;;;6.82;;
24813;SDS011;12904;50.088;11.414;2023-09-30T00:05:05;14.35;;;6.90;;
24813;SDS011;12904;50.088;11.414;2023-09-30T00:07:32;19.30;;;6.65;;
24813;SDS011;12904;50.088;11.414;2023-09-30T00:09:58;14.45;;;6.45;;
24813;SDS011;12904;50.088;11.414;2023-09-30T00:12:24;15.20;;;6.97;;
24813;SDS011;12904;50.088;11.414;2023-09-30T00:14:50;12.38;;;5.95;;
24813;SDS011;12904;50.088;11.414;2023-09-30T00:17:15;17.13;;;6.20;;
24813;SDS011;12904;50.088;11.414;2023-09-30T00:19:41;14.15;;;7.13;;
24813;SDS011;12904;50.088;11.414;2023-09-30T00:22:06;14.00;;;6.88;;
24813;SDS011;12904;50.088;11.414;2023-09-30T00:24:32;14.82;;;6.93;;
24813;SDS011;12904;50.088;11.414;2023-09-30T00:26:59;17.98;;;6.25;;
24813;SDS011;12904;50.088;11.414;2023-09-30T00:29:24;13.57;;;6.55;;
24813;SDS011;12904;50.088;11.414;2023-09-30T00:31:51;15.30;;;6.95;;
24813;SDS011;12904;50.088;11.414;2023-09-30T00:34:17;12.10;;;7.07;;
24813;SDS011;12904;50.088;11.414;2023-09-30T00:36:43;14.00;;;6.10;;
24813;SDS011;12904;50.088;11.414;2023-09-30T00:39:08;14.95;;;6.07;;
24813;SDS011;12904;50.088;11.414;2023-09-30T00:41:35;11.63;;;5.53;;
24813;SDS011;12904;50.088;11.414;2023-09-30T00:44:01;15.90;;;5.43;;
24813;SDS011;12904;50.088;11.414;2023-09-30T00:46:33;13.63;;;6.20;;
24813;SDS011;12904;50.088;11.414;2023-09-30T00:49:05;14.40;;;6.65;;
24813;SDS011;12904;50.088;11.414;2023-09-30T00:51:31;17.55;;;6.30;;
24813;SDS011;12904;50.088;11.414;2023-09-30T00:53:58;15.15;;;6.80;;
24813;SDS011;12904;50.088;11.414;2023-09-30T00:56:26;19.08;;;7.40;;
24813;SDS011;12904;50.088;11.414;2023-09-30T00:58:52;16.77;;;6.78;;
24813;SDS011;12904;50.088;11.414;2023-09-30T01:01:19;17.55;;;6.82;;
24813;SDS011;12904;50.088;11.414;2023-09-30T01:03:45;21.13;;;7.18;;
24813;SDS011;12904;50.088;11.414;2023-09-30T01:06:12;16.38;;;8.93;;
24813;SDS011;12904;50.088;11.414;2023-09-30T01:08:38;24.60;;;9.70;;
24813;SDS011;12904;50.088;11.414;2023-09-30T01:11:04;21.92;;;9.50;;
24813;SDS011;12904;50.088;11.414;2023-09-30T01:13:34;18.40;;;10.00;;
24813;SDS011;12904;50.088;11.414;2023-09-30T01:16:07;22.33;;;10.60;;
24813;SDS011;12904;50.088;11.414;2023-09-30T01:18:34;21.40;;;10.63;;
24813;SDS011;12904;50.088;11.414;2023-09-30T01:21:05;22.45;;;10.95;;
24813;SDS011;12904;50.088;11.414;2023-09-30T01:23:32;1127.45;;;81.05;;
24813;SDS011;12904;50.088;11.414;2023-09-30T01:26:02;28.00;;;9.98;;
24813;SDS011;12904;50.088;11.414;2023-09-30T01:28:29;24.30;;;10.55;;
24813;SDS011;12904;50.088;11.414;2023-09-30T01:30:55;28.98;;;11.15;;
24813;SDS011;12904;50.088;11.414;2023-09-30T01:33:21;23.70;;;9.93;;
24813;SDS011;12904;50.088;11.414;2023-09-30T01:35:47;22.63;;;10.27;;
24813;SDS011;12904;50.088;11.414;2023-09-30T01:38:13;28.60;;;11.70;;
24813;SDS011;12904;50.088;11.414;2023-09-30T01:40:38;27.10;;;10.00;;
24813;SDS011;12904;50.088;11.414;2023-09-30T01:43:04;28.02;;;11.23;;
24813;SDS011;12904;50.088;11.414;2023-09-30T01:45:30;23.70;;;10.52;;
24813;SDS011;12904;50.088;11.414;2023-09-30T01:47:55;29.08;;;11.38;;
24813;SDS011;12904;50.088;11.414;2023-09-30T01:50:21;36.67;;;11.50;;
24813;SDS011;12904;50.088;11.414;2023-09-30T01:52:47;23.02;;;10.75;;
24813;SDS011;12904;50.088;11.414;2023-09-30T01:55:12;25.10;;;10.23;;
24813;SDS011;12904;50.088;11.414;2023-09-30T01:57:38;15.50;;;8.15;;
24813;SDS011;12904;50.088;11.414;2023-09-30T02:00:04;16.92;;;8.68;;
24813;SDS011;12904;50.088;11.414;2023-09-30T02:02:30;18.67;;;7.57;;
24813;SDS011;12904;50.088;11.414;2023-09-30T02:04:56;19.75;;;6.68;;
24813;SDS011;12904;50.088;11.414;2023-09-30T02:07:22;18.05;;;7.72;;
24813;SDS011;12904;50.088;11.414;2023-09-30T02:09:47;74.47;;;10.88;;
24813;SDS011;12904;50.088;11.414;2023-09-30T02:12:14;11.02;;;4.50;;
24813;SDS011;12904;50.088;11.414;2023-09-30T02:14:40;18.08;;;4.60;;
24813;SDS011;12904;50.088;11.414;2023-09-30T02:17:05;6.60;;;3.40;;
24813;SDS011;12904;50.088;11.414;2023-09-30T02:19:31;8.13;;;2.80;;
24813;SDS011;12904;50.088;11.414;2023-09-30T02:21:59;1999.90;;;999.90;;
24813;SDS011;12904;50.088;11.414;2023-09-30T02:24:24;1999.90;;;999.90;;
24813;SDS011;12904;50.088;11.414;2023-09-30T02:26:50;6.00;;;3.28;;
24813;SDS011;12904;50.088;11.414;2023-09-30T02:29:16;6.85;;;2.25;;
24813;SDS011;12904;50.088;11.414;2023-09-30T02:31:41;2.53;;;1.50;;
24813;SDS011;12904;50.088;11.414;2023-09-30T02:34:07;4.75;;;1.95;;
24813;SDS011;12904;50.088;11.414;2023-09-30T02:36:33;4.88;;;1.60;;
24813;SDS011;12904;50.088;11.414;2023-09-30T02:39:04;2.25;;;1.40;;
24813;SDS011;12904;50.088;11.414;2023-09-30T02:41:30;3.95;;;1.20;;
24813;SDS011;12904;50.088;11.414;2023-09-30T02:43:56;4.65;;;2.25;;
24813;SDS011;12904;50.088;11.414;2023-09-30T02:46:21;3.83;;;2.05;;
24813;SDS011;12904;50.088;11.414;2023-09-30T02:48:47;3.40;;;1.50;;
24813;SDS011;12904;50.088;11.414;2023-09-30T02:51:13;2.42;;;1.30;;
24813;SDS011;12904;50.088;11.414;2023-09-30T02:53:39;5.47;;;1.60;;
24813;SDS011;12904;50.088;11.414;2023-09-30T02:56:05;3.50;;;1.80;;
24813;SDS011;12904;50.088;11.414;2023-09-30T02:58:31;4.75;;;1.60;;
24813;SDS011;12904;50.088;11.414;2023-09-30T03:00:57;7.10;;;1.90;;
24813;SDS011;12904;50.088;11.414;2023-09-30T03:03:24;2.70;;;1.50;;
24813;SDS011;12904;50.088;11.414;2023-09-30T03:05:50;3.90;;;1.50;;
24813;SDS011;12904;50.088;11.414;2023-09-30T03:08:17;4.50;;;1.98;;
24813;SDS011;12904;50.088;11.414;2023-09-30T03:10:42;2.85;;;1.80;;
24813;SDS011;12904;50.088;11.414;2023-09-30T03:13:08;4.18;;;1.60;;
24813;SDS011;12904;50.088;11.414;2023-09-30T03:15:34;4.53;;;1.90;;
24813;SDS011;12904;50.088;11.414;2023-09-30T03:18:00;3.63;;;1.52;;
24813;SDS011;12904;50.088;11.414;2023-09-30T03:20:26;6.30;;;2.13;;
24813;SDS011;12904;50.088;11.414;2023-09-30T03:22:52;5.03;;;2.25;;
24813;SDS011;12904;50.088;11.414;2023-09-30T03:25:18;3.58;;;2.05;;
24813;SDS011;12904;50.088;11.414;2023-09-30T03:27:45;3.53;;;1.92;;
24813;SDS011;12904;50.088;11.414;2023-09-30T03:30:12;3.47;;;1.88;;
24813;SDS011;12904;50.088;11.414;2023-09-30T03:32:39;6.35;;;1.95;;
24813;SDS011;12904;50.088;11.414;2023-09-30T03:35:06;4.28;;;1.60;;
24813;SDS011;12904;50.088;11.414;2023-09-30T03:37:35;3.23;;;1.83;;
24813;SDS011;12904;50.088;11.414;2023-09-30T03:40:02;6.25;;;1.58;;
24813;SDS011;12904;50.088;11.414;2023-09-30T03:42:37;6.68;;;2.45;;
24813;SDS011;12904;50.088;11.414;2023-09-30T03:45:04;5.30;;;1.85;;
24813;SDS011;12904;50.088;11.414;2023-09-30T03:47:32;5.85;;;2.00;;
24813;SDS011;12904;50.088;11.414;2023-09-30T03:49:59;6.13;;;1.90;;
24813;SDS011;12904;50.088;11.414;2023-09-30T03:52:25;2.83;;;1.50;;
24813;SDS011;12904;50.088;11.414;2023-09-30T03:54:51;3.63;;;1.63;;
24813;SDS011;12904;50.088;11.414;2023-09-30T03:57:18;5.05;;;2.10;;
24813;SDS011;12904;50.088;11.414;2023-09-30T03:59:44;2.88;;;1.50;;
24813;SDS011;12904;50.088;11.414;2023-09-30T04:02:13;5.65;;;1.80;;
24813;SDS011;12904;50.088;11.414;2023-09-30T04:04:39;4.10;;;1.75;;
24813;SDS011;12904;50.088;11.414;2023-09-30T04:07:05;3.88;;;1.67;;
24813;SDS011;12904;50.088;11.414;2023-09-30T04:09:32;5.03;;;1.80;;
24813;SDS011;12904;50.088;11.414;2023-09-30T04:11:58;4.20;;;1.83;;
24813;SDS011;12904;50.088;11.414;2023-09-30T04:14:23;4.10;;;1.85;;
24813;SDS011;12904;50.088;11.414;2023-09-30T04:16:50;6.10;;;2.13;;
24813;SDS011;12904;50.088;11.414;2023-09-30T04:19:16;4.75;;;1.70;;
24813;SDS011;12904;50.088;11.414;2023-09-30T04:21:41;3.72;;;1.70;;
24813;SDS011;12904;50.088;11.414;2023-09-30T04:24:08;3.95;;;2.05;;
24813;SDS011;12904;50.088;11.414;2023-09-30T04:26:34;7.97;;;1.90;;
24813;SDS011;12904;50.088;11.414;2023-09-30T04:28:59;4.22;;;1.30;;
24813;SDS011;12904;50.088;11.414;2023-09-30T04:31:27;4.05;;;1.77;;
24813;SDS011;12904;50.088;11.414;2023-09-30T04:33:53;4.20;;;2.47;;
24813;SDS011;12904;50.088;11.414;2023-09-30T04:36:19;6.68;;;1.58;;
24813;SDS011;12904;50.088;11.414;2023-09-30T04:38:46;4.63;;;2.05;;
24813;SDS011;12904;50.088;11.414;2023-09-30T04:41:12;4.72;;;1.70;;
24813;SDS011;12904;50.088;11.414;2023-09-30T04:43:38;3.55;;;1.42;;
24813;SDS011;12904;50.088;11.414;2023-09-30T04:46:04;3.72;;;1.95;;
24813;SDS011;12904;50.088;11.414;2023-09-30T04:48:30;3.22;;;1.42;;
24813;SDS011;12904;50.088;11.414;2023-09-30T04:50:57;8.45;;;1.70;;
24813;SDS011;12904;50.088;11.414;2023-09-30T04:53:22;7.78;;;1.80;;
24813;SDS011;12904;50.088;11.414;2023-09-30T04:55:48;3.22;;;1.50;;
24813;SDS011;12904;50.088;11.414;2023-09-30T04:58:16;8.85;;;1.65;;
24813;SDS011;12904;50.088;11.414;2023-09-30T05:00:42;4.70;;;2.10;;
24813;SDS011;12904;50.088;11.414;2023-09-30T05:03:08;4.28;;;1.73;;
24813;SDS011;12904;50.088;11.414;2023-09-30T05:05:34;3.53;;;1.40;;
24813;SDS011;12904;50.088;11.414;2023-09-30T05:08:00;4.35;;;1.90;;
24813;SDS011;12904;50.088;11.414;2023-09-30T05:10:26;5.35;;;1.50;;
24813;SDS011;12904;50.088;11.414;2023-09-30T05:12:52;8.40;;;1.70;;
24813;SDS011;12904;50.088;11.414;2023-09-30T05:15:19;4.38;;;1.35;;
24813;SDS011;12904;50.088;11.414;2023-09-30T05:17:46;3.13;;;1.33;;
24813;SDS011;12904;50.088;11.414;2023-09-30T05:20:13;8.10;;;1.90;;
24813;SDS011;12904;50.088;11.414;2023-09-30T05:22:42;3.65;;;1.58;;
24813;SDS011;12904;50.088;11.414;2023-09-30T05:25:10;4.50;;;1.60;;
24813;SDS011;12904;50.088;11.414;2023-09-30T05:27:37;4.72;;;1.30;;
24813;SDS011;12904;50.088;11.414;2023-09-30T05:30:03;5.38;;;2.22;;
24813;SDS011;12904;50.088;11.414;2023-09-30T05:32:31;3.42;;;1.55;;
24813;SDS011;12904;50.088;11.414;2023-09-30T05:34:56;3.90;;;2.00;;
24813;SDS011;12904;50.088;11.414;2023-09-30T05:37:23;5.30;;;1.55;;
24813;SDS011;12904;50.088;11.414;2023-09-30T05:39:50;4.20;;;1.35;;
24813;SDS011;12904;50.088;11.414;2023-09-30T05:42:16;4.30;;;1.88;;
24813;SDS011;12904;50.088;11.414;2023-09-30T05:44:43;2.88;;;1.50;;
24813;SDS011;12904;50.088;11.414;2023-09-30T05:47:09;4.18;;;1.50;;
24813;SDS011;12904;50.088;11.414;2023-09-30T05:49:35;4.93;;;1.30;;
24813;SDS011;12904;50.088;11.414;2023-09-30T05:52:02;3.88;;;1.30;;
24813;SDS011;12904;50.088;11.414;2023-09-30T05:54:27;5.70;;;1.55;;
24813;SDS011;12904;50.088;11.414;2023-09-30T05:56:53;5.32;;;1.90;;
24813;SDS011;12904;50.088;11.414;2023-09-30T05:59:20;3.95;;;1.38;;
24813;SDS011;12904;50.088;11.414;2023-09-30T06:01:46;3.63;;;1.60;;
24813;SDS011;12904;50.088;11.414;2023-09-30T06:04:11;2.65;;;1.75;;
24813;SDS011;12904;50.088;11.414;2023-09-30T06:06:37;2.50;;;1.23;;
24813;SDS011;12904;50.088;11.414;2023-09-30T06:09:03;2.22;;;1.38;;
24813;SDS011;12904;50.088;11.414;2023-09-30T06:11:32;3.75;;;1.58;;
24813;SDS011;12904;50.088;11.414;2023-09-30T06:13:58;1.70;;;1.10;;
24813;SDS011;12904;50.088;11.414;2023-09-30T06:16:25;4.13;;;1.60;;
24813;SDS011;12904;50.088;11.414;2023-09-30T06:18:52;3.33;;;1.55;;
24813;SDS011;12904;50.088;11.414;2023-09-30T06:21:19;6.05;;;2.00;;
24813;SDS011;12904;50.088;11.414;2023-09-30T06:23:49;4.28;;;1.60;;
24813;SDS011;12904;50.088;11.414;2023-09-30T06:26:18;5.00;;;1.70;;
24813;SDS011;12904;50.088;11.414;2023-09-30T06:28:44;5.50;;;1.60;;
24813;SDS011;12904;50.088;11.414;2023-09-30T06:31:10;3.00;;;1.33;;
24813;SDS011;12904;50.088;11.414;2023-09-30T06:33:36;2.15;;;1.23;;
24813;SDS011;12904;50.088;11.414;2023-09-30T06:36:07;3.85;;;1.48;;
24813;SDS011;12904;50.088;11.414;2023-09-30T06:38:34;2.30;;;1.17;;
24813;SDS011;12904;50.088;11.414;2023-09-30T06:40:59;5.25;;;1.40;;
24813;SDS011;12904;50.088;11.414;2023-09-30T06:43:26;5.25;;;1.55;;
24813;SDS011;12904;50.088;11.414;2023-09-30T06:45:53;2.53;;;1.52;;
24813;SDS011;12904;50.088;11.414;2023-09-30T06:48:19;3.38;;;1.42;;
24813;SDS011;12904;50.088;11.414;2023-09-30T06:50:46;5.53;;;1.83;;
24813;SDS011;12904;50.088;11.414;2023-09-30T06:53:16;4.40;;;1.77;;
24813;SDS011;12904;50.088;11.414;2023-09-30T06:55:43;4.55;;;1.75;;
24813;SDS011;12904;50.088;11.414;2023-09-30T06:58:09;4.40;;;1.33;;
24813;SDS011;12904;50.088;11.414;2023-09-30T07:00:38;3.05;;;1.40;;
24813;SDS011;12904;50.088;11.414;2023-09-30T07:03:07;3.08;;;1.38;;
24813;SDS011;12904;50.088;11.414;2023-09-30T07:05:35;3.47;;;1.48;;
24813;SDS011;12904;50.088;11.414;2023-09-30T07:08:01;5.32;;;1.30;;
24813;SDS011;12904;50.088;11.414;2023-09-30T07:10:27;3.90;;;1.38;;
24813;SDS011;12904;50.088;11.414;2023-09-30T07:12:56;2.70;;;1.50;;
24813;SDS011;12904;50.088;11.414;2023-09-30T07:15:22;3.05;;;1.52;;
24813;SDS011;12904;50.088;11.414;2023-09-30T07:17:48;4.68;;;1.67;;
24813;SDS011;12904;50.088;11.414;2023-09-30T07:20:13;5.38;;;1.70;;
24813;SDS011;12904;50.088;11.414;2023-09-30T07:22:40;4.38;;;1.40;;
24813;SDS011;12904;50.088;11.414;2023-09-30T07:25:06;4.43;;;1.70;;
24813;SDS011;12904;50.088;11.414;2023-09-30T07:27:32;4.95;;;1.58;;
24813;SDS011;12904;50.088;11.414;2023-09-30T07:29:58;3.63;;;1.40;;
24813;SDS011;12904;50.088;11.414;2023-09-30T07:32:24;3.67;;;1.60;;
24813;SDS011;12904;50.088;11.414;2023-09-30T07:34:51;3.45;;;1.30;;
24813;SDS011;12904;50.088;11.414;2023-09-30T07:37:17;4.90;;;1.50;;
24813;SDS011;12904;50.088;11.414;2023-09-30T07:39:43;3.42;;;1.40;;
24813;SDS011;12904;50.088;11.414;2023-09-30T07:42:10;3.00;;;1.30;;
24813;SDS011;12904;50.088;11.414;2023-09-30T07:44:36;4.10;;;2.38;;
24813;SDS011;12904;50.088;11.414;2023-09-30T07:47:04;2.63;;;1.50;;
24813;SDS011;12904;50.088;11.414;2023-09-30T07:49:34;4.03;;;1.52;;
24813;SDS011;12904;50.088;11.414;2023-09-30T07:52:00;2.22;;;1.35;;
24813;SDS011;12904;50.088;11.414;2023-09-30T07:54:26;4.63;;;1.50;;
24813;SDS011;12904;50.088;11.414;2023-09-30T07:56:51;3.35;;;1.30;;
24813;SDS011;12904;50.088;11.414;2023-09-30T07:59:17;4.40;;;1.50;;
24813;SDS011;12904;50.088;11.414;2023-09-30T08:01:43;3.05;;;1.40;;
24813;SDS011;12904;50.088;11.414;2023-09-30T08:04:08;3.60;;;1.42;;
24813;SDS011;12904;50.088;11.414;2023-09-30T08:06:34;4.38;;;1.55;;
24813;SDS011;12904;50.088;11.414;2023-09-30T08:08:59;3.63;;;1.90;;
24813;SDS011;12904;50.088;11.414;2023-09-30T08:11:25;9.77;;;2.15;;
24813;SDS011;12904;50.088;11.414;2023-09-30T08:13:55;3.05;;;1.58;;
24813;SDS011;12904;50.088;11.414;2023-09-30T08:16:21;3.60;;;1.92;;
24813;SDS011;12904;50.088;11.414;2023-09-30T08:18:47;4.82;;;1.33;;
24813;SDS011;12904;50.088;11.414;2023-09-30T08:21:13;2.17;;;1.20;;
24813;SDS011;12904;50.088;11.414;2023-09-30T08:23:39;3.72;;;1.55;;
24813;SDS011;12904;50.088;11.414;2023-09-30T08:26:05;6.43;;;1.50;;
24813;SDS011;12904;50.088;11.414;2023-09-30T08:28:31;2.45;;;1.40;;
24813;SDS011;12904;50.088;11.414;2023-09-30T08:31:04;4.03;;;1.30;;
24813;SDS011;12904;50.088;11.414;2023-09-30T08:33:30;3.58;;;1.75;;
24813;SDS011;12904;50.088;11.414;2023-09-30T08:36:01;2.35;;;1.10;;
24813;SDS011;12904;50.088;11.414;2023-09-30T08:38:32;3.63;;;1.40;;
24813;SDS011;12904;50.088;11.414;2023-09-30T08:40:58;2.72;;;1.27;;
24813;SDS011;12904;50.088;11.414;2023-09-30T08:43:25;4.00;;;1.30;;
24813;SDS011;12904;50.088;11.414;2023-09-30T08:45:57;3.50;;;1.30;;
24813;SDS011;12904;50.088;11.414;2023-09-30T08:48:25;2.78;;;1.33;;
24813;SDS011;12904;50.088;11.414;2023-09-30T08:50:52;3.15;;;1.50;;
24813;SDS011;12904;50.088;11.414;2023-09-30T08:53:19;6.13;;;1.52;;
24813;SDS011;12904;50.088;11.414;2023-09-30T08:55:46;3.28;;;1.10;;
24813;SDS011;12904;50.088;11.414;2023-09-30T08:58:12;2.70;;;1.17;;
24813;SDS011;12904;50.088;11.414;2023-09-30T09:00:39;3.20;;;1.10;;
24813;SDS011;12904;50.088;11.414;2023-09-30T09:03:07;2.72;;;1.20;;
24813;SDS011;12904;50.088;11.414;2023-09-30T09:05:33;7.43;;;1.90;;
24813;SDS011;12904;50.088;11.414;2023-09-30T09:07:59;2.97;;;2.03;;
24813;SDS011;12904;50.088;11.414;2023-09-30T09:10:25;2.85;;;2.05;;
24813;SDS011;12904;50.088;11.414;2023-09-30T09:12:58;2.53;;;1.00;;
24813;SDS011;12904;50.088;11.414;2023-09-30T09:15:24;2.15;;;1.20;;
24813;SDS011;12904;50.088;11.414;2023-09-30T09:17:51;4.55;;;1.30;;
24813;SDS011;12904;50.088;11.414;2023-09-30T09:20:18;4.97;;;1.70;;
24813;SDS011;12904;50.088;11.414;2023-09-30T09:22:54;3.60;;;1.73;;
24813;SDS011;12904;50.088;11.414;2023-09-30T09:25:24;2.63;;;1.10;;
24813;SDS011;12904;50.088;11.414;2023-09-30T09:27:50;4.80;;;1.63;;
24813;SDS011;12904;50.088;11.414;2023-09-30T09:30:17;3.22;;;1.55;;
24813;SDS011;12904;50.088;11.414;2023-09-30T09:33:00;4.37;;;1.97;;
24813;SDS011;12904;50.088;11.414;2023-09-30T09:35:27;3.28;;;1.45;;
24813;SDS011;12904;50.088;11.414;2023-09-30T09:37:58;4.20;;;1.63;;
24813;SDS011;12904;50.088;11.414;2023-09-30T09:40:26;2.87;;;1.30;;
24813;SDS011;12904;50.088;11.414;2023-09-30T09:42:53;2.90;;;1.38;;
24813;SDS011;12904;50.088;11.414;2023-09-30T09:45:21;4.60;;;1.45;;
24813;SDS011;12904;50.088;11.414;2023-09-30T09:47:51;2.50;;;1.13;;
24813;SDS011;12904;50.088;11.414;2023-09-30T09:50:18;2.85;;;1.48;;
24813;SDS011;12904;50.088;11.414;2023-09-30T09:52:50;2.90;;;1.38;;
24813;SDS011;12904;50.088;11.414;2023-09-30T09:55:18;2.88;;;1.65;;
24813;SDS011;12904;50.088;11.414;2023-09-30T09:57:47;2.60;;;1.63;;
24813;SDS011;12904;50.088;11.414;2023-09-30T10:00:21;2.08;;;1.30;;
24813;SDS011;12904;50.088;11.414;2023-09-30T10:02:49;3.90;;;1.20;;
24813;SDS011;12904;50.088;11.414;2023-09-30T10:05:15;4.22;;;1.27;;
24813;SDS011;12904;50.088;11.414;2023-09-30T10:07:56;4.03;;;1.25;;
24813;SDS011;12904;50.088;11.414;2023-09-30T10:10:25;2.65;;;1.35;;
24813;SDS011;12904;50.088;11.414;2023-09-30T10:12:53;3.67;;;1.52;;
24813;SDS011;12904;50.088;11.414;2023-09-30T10:20:29;8.52;;;2.15;;
24813;SDS011;12904;50.088;11.414;2023-09-30T10:28:33;6.95;;;1.50;;
24813;SDS011;12904;50.088;11.414;2023-09-30T10:31:09;2.47;;;1.50;;
24813;SDS011;12904;50.088;11.414;2023-09-30T10:33:40;2.70;;;1.30;;
24813;SDS011;12904;50.088;11.414;2023-09-30T10:36:30;3.88;;;1.90;;
24813;SDS011;12904;50.088;11.414;2023-09-30T10:39:06;2.42;;;1.40;;
24813;SDS011;12904;50.088;11.414;2023-09-30T10:49:45;3.40;;;1.52;;
24813;SDS011;12904;50.088;11.414;2023-09-30T10:52:12;3.70;;;1.35;;
24813;SDS011;12904;50.088;11.414;2023-09-30T10:54:50;1.98;;;1.10;;
24813;SDS011;12904;50.088;11.414;2023-09-30T10:57:26;3.58;;;1.50;;
24813;SDS011;12904;50.088;11.414;2023-09-30T11:00:08;3.45;;;1.33;;
24813;SDS011;12904;50.088;11.414;2023-09-30T11:02:50;3.38;;;1.23;;
24813;SDS011;12904;50.088;11.414;2023-09-30T11:05:16;2.35;;;1.38;;
24813;SDS011;12904;50.088;11.414;2023-09-30T11:07:43;2.40;;;1.35;;
24813;SDS011;12904;50.088;11.414;2023-09-30T11:10:15;3.40;;;1.17;;
24813;SDS011;12904;50.088;11.414;2023-09-30T11:12:53;3.95;;;1.48;;
24813;SDS011;12904;50.088;11.414;2023-09-30T11:15:19;3.33;;;1.50;;
24813;SDS011;12904;50.088;11.414;2023-09-30T11:17:45;1999.90;;;999.90;;
24813;SDS011;12904;50.088;11.414;2023-09-30T11:20:10;1999.90;;;999.90;;
24813;SDS011;12904;50.088;11.414;2023-09-30T11:22:36;1999.90;;;999.90;;
24813;SDS011;12904;50.088;11.414;2023-09-30T11:25:04;1999.90;;;999.90;;
24813;SDS011;12904;50.088;11.414;2023-09-30T11:27:30;1999.90;;;999.90;;
24813;SDS011;12904;50.088;11.414;2023-09-30T11:29:56;1999.90;;;999.90;;
24813;SDS011;12904;50.088;11.414;2023-09-30T11:32:27;1505.90;;;754.92;;
24813;SDS011;12904;50.088;11.414;2023-09-30T11:34:53;1999.90;;;999.90;;
24813;SDS011;12904;50.088;11.414;2023-09-30T11:37:19;1999.90;;;999.90;;
24813;SDS011;12904;50.088;11.414;2023-09-30T11:39:47;1999.90;;;999.90;;
24813;SDS011;12904;50.088;11.414;2023-09-30T11:42:16;1999.90;;;999.90;;
24813;SDS011;12904;50.088;11.414;2023-09-30T11:44:46;1999.90;;;999.90;;
24813;SDS011;12904;50.088;11.414;2023-09-30T11:47:13;1999.90;;;999.90;;
24813;SDS011;12904;50.088;11.414;2023-09-30T11:49:40;1999.90;;;999.90;;
24813;SDS011;12904;50.088;11.414;2023-09-30T11:52:12;1999.90;;;999.90;;
24813;SDS011;12904;50.088;11.414;2023-09-30T11:57:08;1999.90;;;999.90;;
24813;SDS011;12904;50.088;11.414;2023-09-30T11:59:35;1999.90;;;999.90;;
24813;SDS011;12904;50.088;11.414;2023-09-30T12:02:05;1999.90;;;999.90;;
24813;SDS011;12904;50.088;11.414;2023-09-30T12:04:33;1999.90;;;999.90;;
24813;SDS011;12904;50.088;11.414;2023-09-30T12:06:59;1999.90;;;999.90;;
24813;SDS011;12904;50.088;11.414;2023-09-30T12:09:25;1999.90;;;999.90;;
24813;SDS011;12904;50.088;11.414;2023-09-30T12:11:52;1999.90;;;999.90;;
24813;SDS011;12904;50.088;11.414;2023-09-30T12:14:18;1999.90;;;999.90;;
24813;SDS011;12904;50.088;11.414;2023-09-30T12:16:45;1999.90;;;999.90;;
24813;SDS011;12904;50.088;11.414;2023-09-30T12:19:13;1999.90;;;999.90;;
24813;SDS011;12904;50.088;11.414;2023-09-30T12:21:40;1999.90;;;999.90;;
24813;SDS011;12904;50.088;11.414;2023-09-30T12:24:07;1999.90;;;999.90;;
24813;SDS011;12904;50.088;11.414;2023-09-30T12:26:34;1999.90;;;999.90;;
24813;SDS011;12904;50.088;11.414;2023-09-30T12:29:01;1999.90;;;999.90;;
24813;SDS011;12904;50.088;11.414;2023-09-30T12:31:26;1.13;;;0.82;;
24813;SDS011;12904;50.088;11.414;2023-09-30T12:33:52;2.25;;;0.52;;
24813;SDS011;12904;50.088;11.414;2023-09-30T12:36:19;4.82;;;0.70;;
24813;SDS011;12904;50.088;11.414;2023-09-30T12:38:45;0.40;;;0.40;;
24813;SDS011;12904;50.088;11.414;2023-09-30T12:41:10;1.15;;;0.73;;
24813;SDS011;12904;50.088;11.414;2023-09-30T12:43:39;0.65;;;0.57;;
24813;SDS011;12904;50.088;11.414;2023-09-30T12:46:06;1.40;;;0.57;;
24813;SDS011;12904;50.088;11.414;2023-09-30T12:48:38;0.40;;;0.40;;
24813;SDS011;12904;50.088;11.414;2023-09-30T12:51:04;0.50;;;0.50;;
24813;SDS011;12904;50.088;11.414;2023-09-30T12:53:31;0.73;;;0.57;;
24813;SDS011;12904;50.088;11.414;2023-09-30T12:55:57;0.80;;;0.60;;
24813;SDS011;12904;50.088;11.414;2023-09-30T12:58:24;130.85;;;78.38;;
24813;SDS011;12904;50.088;11.414;2023-09-30T13:00:52;0.77;;;0.68;;
24813;SDS011;12904;50.088;11.414;2023-09-30T13:03:21;0.50;;;0.38;;
24813;SDS011;12904;50.088;11.414;2023-09-30T13:05:47;0.57;;;0.47;;
24813;SDS011;12904;50.088;11.414;2023-09-30T13:08:13;2.50;;;0.60;;
24813;SDS011;12904;50.088;11.414;2023-09-30T13:10:39;0.52;;;0.52;;
24813;SDS011;12904;50.088;11.414;2023-09-30T13:13:04;0.75;;;0.50;;
24813;SDS011;12904;50.088;11.414;2023-09-30T13:15:30;1.25;;;0.60;;
24813;SDS011;12904;50.088;11.414;2023-09-30T13:17:56;0.98;;;0.70;;
24813;SDS011;12904;50.088;11.414;2023-09-30T13:20:21;2.55;;;0.93;;
24813;SDS011;12904;50.088;11.414;2023-09-30T13:22:47;0.75;;;0.60;;
24813;SDS011;12904;50.088;11.414;2023-09-30T13:25:13;1.15;;;0.60;;
24813;SDS011;12904;50.088;11.414;2023-09-30T13:27:39;0.60;;;0.60;;
24813;SDS011;12904;50.088;11.414;2023-09-30T13:30:06;0.50;;;0.50;;
24813;SDS011;12904;50.088;11.414;2023-09-30T13:32:33;33.40;;;32.42;;
24813;SDS011;12904;50.088;11.414;2023-09-30T13:35:02;0.45;;;0.40;;
24813;SDS011;12904;50.088;11.414;2023-09-30T13:37:31;0.52;;;0.52;;
24813;SDS011;12904;50.088;11.414;2023-09-30T13:40:01;1.27;;;0.80;;
24813;SDS011;12904;50.088;11.414;2023-09-30T13:42:29;0.57;;;0.57;;
24813;SDS011;12904;50.088;11.414;2023-09-30T13:44:55;1.10;;;0.80;;
24813;SDS011;12904;50.088;11.414;2023-09-30T13:47:22;0.40;;;0.40;;
24813;SDS011;12904;50.088;11.414;2023-09-30T13:49:49;0.90;;;0.50;;
24813;SDS011;12904;50.088;11.414;2023-09-30T13:52:15;1.55;;;0.65;;
24813;SDS011;12904;50.088;11.414;2023-09-30T13:54:40;1.55;;;0.82;;
24813;SDS011;12904;50.088;11.414;2023-09-30T13:57:06;0.50;;;0.50;;
24813;SDS011;12904;50.088;11.414;2023-09-30T13:59:35;0.60;;;0.40;;
24813;SDS011;12904;50.088;11.414;2023-09-30T14:02:01;1.67;;;0.65;;
24813;SDS011;12904;50.088;11.414;2023-09-30T14:04:29;138.85;;;35.67;;
24813;SDS011;12904;50.088;11.414;2023-09-30T14:06:57;1999.90;;;999.90;;
24813;SDS011;12904;50.088;11.414;2023-09-30T14:09:26;3.75;;;3.47;;
24813;SDS011;12904;50.088;11.414;2023-09-30T14:11:52;4.35;;;3.97;;
24813;SDS011;12904;50.088;11.414;2023-09-30T14:14:18;3.10;;;2.58;;
24813;SDS011;12904;50.088;11.414;2023-09-30T14:16:44;1558.90;;;768.38;;
24813;SDS011;12904;50.088;11.414;2023-09-30T14:19:09;194.43;;;70.75;;
24813;SDS011;12904;50.088;11.414;2023-09-30T14:21:35;744.70;;;66.55;;
24813;SDS011;12904;50.088;11.414;2023-09-30T14:24:00;1999.90;;;999.90;;
24813;SDS011;12904;50.088;11.414;2023-09-30T14:26:29;1999.90;;;999.90;;
24813;SDS011;12904;50.088;11.414;2023-09-30T14:28:55;12.77;;;12.38;;
24813;SDS011;12904;50.088;11.414;2023-09-30T14:31:20;16.23;;;14.45;;
24813;SDS011;12904;50.088;11.414;2023-09-30T14:33:46;611.50;;;314.17;;
24813;SDS011;12904;50.088;11.414;2023-09-30T14:36:12;150.60;;;142.10;;
24813;SDS011;12904;50.088;11.414;2023-09-30T14:38:38;1999.90;;;999.90;;
24813;SDS011;12904;50.088;11.414;2023-09-30T14:41:07;100.63;;;70.28;;
24813;SDS011;12904;50.088;11.414;2023-09-30T14:43:33;1999.90;;;999.90;;